Time;durP1;ratioP1;P1;durP2;ratioP2;P2;SDS_P1;SDS_P2;PMS_P1;PMS_P2;Temp;Humidity;BMP_temperature;BMP_pressure;BME280_temperature;BME280_humidity;BME280_pressure;Samples;Min_cycle;Max_cycle;Signal;HPM_P1;HPM_P2
2023/03/02 00:00:34;;;;;;;5.10;4.60;;;7.50;99.90;;;7.34;70.74;95291.84;5031631;28;20959;-56
2023/03/02 00:03:01;;;;;;;4.83;4.40;;;7.50;99.90;;;7.35;70.50;95290.03;5039699;28;20526;-55
2023/03/02 00:05:30;;;;;;;5.43;4.30;;;7.50;99.90;;;7.33;69.93;95281.47;5036292;28;20453;-55
2023/03/02 00:07:58;;;;;;;5.60;3.90;;;7.50;99.90;;;7.32;70.29;95285.03;5037144;28;20503;-55
2023/03/02 00:10:25;;;;;;;6.47;3.63;;;7.50;99.90;;;7.30;70.30;95279.06;5034364;28;20463;-56
2023/03/02 00:12:52;;;;;;;4.17;3.77;;;7.50;99.90;;;7.28;70.65;95281.81;5033248;28;20477;-55
2023/03/02 00:15:20;;;;;;;6.13;3.73;;;7.50;99.90;;;7.26;70.70;95278.44;5037772;28;20448;-56
2023/03/02 00:17:47;;;;;;;3.30;3.10;;;7.40;99.90;;;7.25;70.49;95278.56;5037756;28;20582;-57
2023/03/02 00:20:15;;;;;;;5.40;3.40;;;7.40;99.90;;;7.22;70.35;95276.16;5033999;28;20460;-56
2023/03/02 00:22:45;;;;;;;3.30;3.00;;;7.40;99.90;;;7.19;70.33;95272.00;5038650;28;20525;-56
2023/03/02 00:25:13;;;;;;;3.30;3.10;;;7.40;99.90;;;7.17;70.88;95266.00;5038078;28;20551;-56
2023/03/02 00:27:41;;;;;;;4.00;3.70;;;7.40;99.90;;;7.13;70.90;95265.41;5031257;28;20825;-56
2023/03/02 00:30:10;;;;;;;4.30;3.33;;;7.40;99.90;;;7.12;70.29;95263.72;5031811;28;20489;-56
2023/03/02 00:32:40;;;;;;;4.10;3.70;;;7.30;99.90;;;7.10;70.50;95275.25;5034597;28;20475;-56
2023/03/02 00:35:08;;;;;;;3.20;2.93;;;7.30;99.90;;;7.08;71.03;95271.91;5039861;28;20459;-55
2023/03/02 00:37:36;;;;;;;6.43;3.60;;;7.30;99.90;;;7.08;71.29;95267.53;5033106;28;20500;-56
2023/03/02 00:40:06;;;;;;;3.30;3.00;;;7.30;99.90;;;7.09;71.04;95263.13;5036152;28;20527;-56
2023/03/02 00:42:34;;;;;;;3.47;3.17;;;7.30;99.90;;;7.08;71.05;95257.06;5033992;28;20942;-56
2023/03/02 00:45:01;;;;;;;3.70;2.50;;;7.30;99.90;;;7.08;70.49;95261.44;5045114;28;20977;-56
2023/03/02 00:47:28;;;;;;;2.70;2.47;;;7.30;99.90;;;7.05;71.32;95257.28;5036648;28;20568;-55
2023/03/02 00:49:56;;;;;;;2.70;2.50;;;7.20;99.90;;;7.03;71.24;95253.91;5039905;28;20510;-56
2023/03/02 00:52:23;;;;;;;5.40;2.67;;;7.20;99.90;;;7.02;70.68;95248.78;5036312;28;20522;-57
2023/03/02 00:54:50;;;;;;;3.30;3.00;;;7.20;99.90;;;7.01;71.40;95253.19;5036877;28;20541;-55
2023/03/02 00:57:19;;;;;;;2.93;2.73;;;7.20;99.90;;;6.98;71.42;95240.34;5039158;28;20488;-56
2023/03/02 00:59:46;;;;;;;2.60;2.40;;;7.20;99.90;;;6.96;71.21;95237.00;5034368;28;20468;-56
2023/03/02 01:02:15;;;;;;;3.13;2.80;;;7.20;99.90;;;6.95;70.69;95240.56;5037482;28;21318;-58
2023/03/02 01:04:43;;;;;;;2.70;2.50;;;7.20;99.90;;;6.93;71.13;95232.00;5035060;28;20464;-56
2023/03/02 01:07:11;;;;;;;3.03;2.80;;;7.10;99.90;;;6.93;70.93;95224.16;5038804;28;20484;-55
2023/03/02 01:09:39;;;;;;;3.00;2.20;;;7.10;99.90;;;6.93;71.09;95232.00;5030103;28;21055;-56
2023/03/02 01:12:09;;;;;;;2.17;2.07;;;7.10;99.90;;;6.92;70.67;95225.91;5035716;28;21745;-55
2023/03/02 01:14:38;;;;;;;2.53;2.43;;;7.10;99.90;;;6.88;70.63;95221.88;5039486;28;20455;-56
2023/03/02 01:17:05;;;;;;;2.40;2.00;;;7.10;99.90;;;6.87;70.34;95221.97;5040751;28;21095;-55
2023/03/02 01:19:33;;;;;;;2.00;1.83;;;7.10;99.90;;;6.88;71.29;95214.03;5032361;28;20594;-56
2023/03/02 01:22:00;;;;;;;2.50;2.17;;;7.00;99.90;;;6.88;70.92;95213.16;5037208;28;20557;-55
2023/03/02 01:24:27;;;;;;;1.77;1.67;;;7.10;99.90;;;6.88;70.59;95221.00;5035382;28;20463;-54
2023/03/02 01:26:54;;;;;;;3.00;1.97;;;7.10;99.90;;;6.88;71.03;95219.25;5032084;28;20499;-56
2023/03/02 01:29:22;;;;;;;2.03;1.93;;;7.10;99.90;;;6.88;70.25;95213.16;5041555;28;20468;-57
2023/03/02 01:31:50;;;;;;;2.50;2.30;;;7.10;99.90;;;6.86;70.48;95221.13;5040965;28;20471;-57
2023/03/02 01:34:18;;;;;;;2.13;1.87;;;7.00;99.90;;;6.86;70.82;95212.44;5043558;28;20455;-55
2023/03/02 01:36:45;;;;;;;4.30;2.77;;;7.00;99.90;;;6.85;71.11;95208.16;5042182;28;20487;-55
2023/03/02 01:39:14;;;;;;;2.60;2.40;;;7.00;99.90;;;6.84;71.01;95220.41;5040241;28;21087;-55
2023/03/02 01:41:42;;;;;;;3.40;2.57;;;7.00;99.90;;;6.79;71.22;95212.88;5038519;28;20478;-55
2023/03/02 01:44:40;;;;;;;3.40;2.47;;;7.00;99.90;;;6.76;71.85;95207.88;5040828;28;20452;-55
2023/03/02 01:47:14;;;;;;;3.27;2.77;;;7.00;99.90;;;6.73;70.86;95210.69;5042814;28;20500;-55
2023/03/02 01:49:46;;;;;;;2.40;2.20;;;6.90;99.90;;;6.71;70.86;95217.81;5044233;28;20518;-55
2023/03/02 01:52:14;;;;;;;6.20;2.73;;;6.90;99.90;;;6.69;71.76;95213.63;5035208;28;20866;-55
2023/03/02 01:54:41;;;;;;;1.70;1.43;;;6.90;99.90;;;6.69;71.01;95208.41;5037617;28;20565;-57
2023/03/02 01:57:09;;;;;;;2.00;1.80;;;6.90;99.90;;;6.68;71.36;95201.50;5035691;28;20484;-56
2023/03/02 01:59:37;;;;;;;3.03;2.83;;;6.90;99.90;;;6.66;71.33;95204.22;5041989;28;20585;-57
2023/03/02 02:02:06;;;;;;;3.83;2.20;;;6.90;99.90;;;6.64;71.79;95206.94;5041812;28;20985;-56
2023/03/02 02:04:36;;;;;;;2.20;2.00;;;6.80;99.90;;;6.66;71.49;95195.56;5038066;28;20461;-56
2023/03/02 02:07:04;;;;;;;2.40;2.03;;;6.80;99.90;;;6.66;70.94;95199.00;5049470;28;20545;-56
2023/03/02 02:09:34;;;;;;;1.97;1.77;;;6.80;99.90;;;6.64;72.25;95200.88;5038261;28;20455;-56
2023/03/02 02:12:02;;;;;;;2.23;1.80;;;6.80;99.90;;;6.63;71.76;95193.97;5036783;28;20487;-56
2023/03/02 02:14:29;;;;;;;1.80;1.70;;;6.80;99.90;;;6.64;71.37;95196.47;5036359;28;20453;-56
2023/03/02 02:16:56;;;;;;;1.40;1.30;;;6.80;99.90;;;6.63;72.29;95189.59;5039583;28;20492;-56
2023/03/02 02:19:37;;;;;;;1.73;1.63;;;6.80;99.90;;;6.63;72.14;95189.59;5042383;28;20495;-55
2023/03/02 02:22:05;;;;;;;1.73;1.63;;;6.80;99.90;;;6.66;72.03;95203.41;5033608;28;20533;-55
2023/03/02 02:24:34;;;;;;;2.33;1.87;;;6.80;99.90;;;6.67;71.36;95211.13;5037717;28;20501;-56
2023/03/02 02:27:02;;;;;;;2.20;1.83;;;6.90;99.90;;;6.67;71.35;95200.66;5038983;28;20484;-57
2023/03/02 02:29:31;;;;;;;1.50;1.40;;;6.90;99.90;;;6.68;71.92;95206.72;5042962;28;20953;-56
2023/03/02 02:32:02;;;;;;;1.57;1.47;;;6.90;99.90;;;6.66;71.49;95199.00;5041263;28;20486;-55
2023/03/02 02:34:31;;;;;;;1.60;1.50;;;6.90;99.90;;;6.66;71.97;95198.16;5038911;28;20463;-58
2023/03/02 02:37:03;;;;;;;2.60;1.40;;;6.90;99.90;;;6.66;71.77;95191.16;5039065;28;21188;-56
2023/03/02 02:39:32;;;;;;;2.60;1.47;;;6.90;99.90;;;6.64;72.09;95201.72;5032920;28;20546;-56
2023/03/02 02:42:03;;;;;;;1.63;1.53;;;6.90;99.90;;;6.65;72.08;95202.56;5030247;28;20534;-57
2023/03/02 02:44:30;;;;;;;2.70;1.33;;;6.80;99.90;;;6.65;71.91;95205.19;5042270;28;20948;-55
2023/03/02 02:46:57;;;;;;;2.03;1.80;;;6.80;99.90;;;6.64;72.23;95201.72;5039357;28;20483;-57
2023/03/02 02:49:31;;;;;;;2.17;1.80;;;6.80;99.90;;;6.63;71.57;95205.28;5037878;28;20449;-56
2023/03/02 02:51:58;;;;;;;1.83;1.73;;;6.80;99.90;;;6.63;71.47;95204.44;5036711;28;20480;-56
2023/03/02 02:54:25;;;;;;;1.83;1.53;;;6.80;99.90;;;6.61;71.43;95206.34;5039864;28;20525;-55
2023/03/02 02:56:53;;;;;;;1.70;1.60;;;6.80;99.90;;;6.58;72.17;95186.50;5038965;28;20483;-56
2023/03/02 02:59:23;;;;;;;2.67;1.80;;;6.80;99.90;;;6.58;71.79;95183.03;5035540;28;20519;-55
2023/03/02 03:01:50;;;;;;;2.43;1.87;;;6.80;99.90;;;6.58;71.94;95185.63;5035040;28;21093;-56
2023/03/02 03:04:20;;;;;;;1.40;1.30;;;6.80;99.90;;;6.58;72.07;95186.50;5033883;28;20459;-56
2023/03/02 03:06:53;;;;;;;2.20;2.03;;;6.80;99.90;;;6.58;72.27;95194.34;5039424;28;20503;-55
2023/03/02 03:09:20;;;;;;;3.63;1.47;;;6.80;99.90;;;6.59;72.08;95184.72;5039572;28;20460;-56
2023/03/02 03:11:49;;;;;;;1.97;1.87;;;6.80;99.90;;;6.59;72.11;95182.91;5038348;28;20477;-56
2023/03/02 03:14:18;;;;;;;5.87;2.67;;;6.80;99.90;;;6.60;71.72;95184.59;5034667;28;20482;-56
2023/03/02 03:16:50;;;;;;;1.33;1.23;;;6.80;99.90;;;6.59;71.46;95184.72;5033487;28;20480;-56
2023/03/02 03:19:20;;;;;;;2.00;1.90;;;6.80;99.90;;;6.59;71.66;95182.09;5037263;28;20488;-55
2023/03/02 03:21:49;;;;;;;1.90;1.80;;;6.80;99.90;;;6.58;71.07;95176.03;5041318;28;20482;-55
2023/03/02 03:24:16;;;;;;;1.80;1.70;;;6.80;99.90;;;6.58;71.25;95180.41;5041517;28;20793;-57
2023/03/02 03:26:43;;;;;;;3.80;1.27;;;6.80;99.90;;;6.58;71.34;95180.41;5035534;28;21057;-55
2023/03/02 03:29:11;;;;;;;1.23;1.13;;;6.80;99.90;;;6.59;71.71;95182.09;5041548;28;20457;-55
2023/03/02 03:31:38;;;;;;;3.00;1.80;;;6.80;99.90;;;6.60;71.28;95174.13;5035227;28;20473;-56
2023/03/02 03:34:07;;;;;;;1.97;1.60;;;6.80;99.90;;;6.60;71.10;95184.59;5035609;28;20511;-57
2023/03/02 03:36:34;;;;;;;2.50;2.30;;;6.80;99.90;;;6.59;71.79;95182.09;5041092;28;20479;-57
2023/03/02 03:39:02;;;;;;;1.60;1.50;;;6.80;99.90;;;6.61;71.39;95188.03;5039723;28;20564;-56
2023/03/02 03:41:29;;;;;;;1.80;1.70;;;6.80;99.90;;;6.62;71.30;95184.50;5033638;28;20476;-55
2023/03/02 03:43:56;;;;;;;6.33;2.10;;;6.80;99.90;;;6.62;71.59;95176.66;5036639;28;20464;-57
2023/03/02 03:46:24;;;;;;;1.50;1.40;;;6.80;99.90;;;6.61;71.60;95175.78;5041292;28;20486;-58
2023/03/02 03:48:51;;;;;;;1.03;0.93;;;6.80;99.90;;;6.62;71.25;95180.09;5030881;28;20457;-56
2023/03/02 03:51:20;;;;;;;1.40;1.30;;;6.80;99.90;;;6.63;71.13;95178.31;5035301;28;20473;-56
2023/03/02 03:53:58;;;;;;;1.40;1.30;;;6.80;99.90;;;6.62;71.28;95182.69;5036050;28;20964;-57
2023/03/02 03:56:26;;;;;;;6.23;1.37;;;6.80;99.90;;;6.61;71.09;95180.19;5039247;28;20498;-55
2023/03/02 03:59:04;;;;;;;1.90;1.73;;;6.80;99.90;;;6.60;71.60;95181.13;5033988;28;20491;-56
2023/03/02 04:01:33;;;;;;;1.50;1.40;;;6.80;99.90;;;6.61;71.50;95190.66;5039686;28;20571;-56
2023/03/02 04:04:01;;;;;;;1.87;1.70;;;6.80;99.90;;;6.61;70.95;95188.84;5035975;28;20475;-56
2023/03/02 04:06:29;;;;;;;1.23;1.13;;;6.80;99.90;;;6.63;70.88;95186.13;5034890;28;20473;-55
2023/03/02 04:09:01;;;;;;;1.20;1.10;;;6.80;99.90;;;6.61;71.47;95198.50;5043683;28;20452;-57
2023/03/02 04:11:29;;;;;;;1.70;1.50;;;6.80;99.90;;;6.60;71.24;95184.59;5038037;28;21020;-56
2023/03/02 04:13:56;;;;;;;1.33;1.23;;;6.80;99.90;;;6.59;71.20;95185.53;5033978;28;20523;-56
2023/03/02 04:16:23;;;;;;;1.30;1.20;;;6.80;99.90;;;6.60;71.59;95184.59;5039299;28;20517;-57
2023/03/02 04:18:50;;;;;;;1.27;1.13;;;6.80;99.90;;;6.61;71.27;95181.03;5039044;28;20504;-56
2023/03/02 04:21:18;;;;;;;3.00;1.20;;;6.80;99.90;;;6.61;71.27;95174.97;5033348;28;20484;-57
2023/03/02 04:23:46;;;;;;;4.60;1.33;;;6.80;99.90;;;6.60;71.56;95178.50;5038407;28;20475;-55
2023/03/02 04:26:14;;;;;;;1.37;1.27;;;6.80;99.90;;;6.59;71.66;95182.91;5038368;28;20482;-56
2023/03/02 04:28:41;;;;;;;1.27;1.17;;;6.80;99.90;;;6.57;71.19;95178.75;5039965;28;20457;-55
2023/03/02 04:31:08;;;;;;;1.33;1.23;;;6.80;99.90;;;6.57;71.89;95174.34;5040289;28;20485;-55
2023/03/02 04:33:37;;;;;;;1.27;1.00;;;6.80;99.90;;;6.58;71.92;95175.19;5042568;28;20965;-58
2023/03/02 04:36:05;;;;;;;7.07;2.33;;;6.80;99.90;;;6.58;71.80;95181.25;5048238;28;20897;-55
2023/03/02 04:38:32;;;;;;;2.00;1.90;;;6.80;99.90;;;6.56;71.81;95193.59;5042040;28;20503;-56
2023/03/02 04:41:01;;;;;;;4.23;2.70;;;6.80;99.90;;;6.56;72.16;95187.53;5038641;28;20460;-56
2023/03/02 04:43:28;;;;;;;54.93;28.37;;;6.80;99.90;;;6.55;71.81;95194.53;5036403;28;20462;-56
2023/03/02 04:45:56;;;;;;;7.00;5.00;;;6.80;99.90;;;6.56;72.28;95197.97;5037606;28;20464;-57
2023/03/02 04:48:23;;;;;;;4.87;4.13;;;6.80;99.90;;;6.54;71.90;95192.88;5033106;28;20548;-56
2023/03/02 04:50:50;;;;;;;3.93;3.53;;;6.80;99.90;;;6.55;72.22;95201.53;5031006;28;20467;-57
2023/03/02 04:53:18;;;;;;;2.00;1.73;;;6.80;99.90;;;6.54;72.31;95200.72;5034574;28;20456;-57
2023/03/02 04:55:46;;;;;;;4.10;3.70;;;6.80;99.90;;;6.55;72.45;95206.75;5041604;28;20462;-56
2023/03/02 04:58:14;;;;;;;43.20;22.33;;;6.80;99.90;;;6.52;72.70;95201.75;5034802;28;20507;-58
2023/03/02 05:00:41;;;;;;;2.33;2.13;;;6.70;99.90;;;6.54;72.20;95199.88;5042070;28;20497;-56
2023/03/02 05:03:09;;;;;;;2.73;2.53;;;6.70;99.90;;;6.52;72.28;95197.38;5027886;28;20476;-56
2023/03/02 05:05:36;;;;;;;2.50;2.40;;;6.70;99.90;;;6.52;72.38;95188.69;5037568;28;20539;-56
2023/03/02 05:08:04;;;;;;;2.70;2.50;;;6.70;99.90;;;6.51;72.36;95194.88;5035744;28;20998;-56
2023/03/02 05:10:31;;;;;;;3.00;2.63;;;6.70;99.90;;;6.51;72.60;95200.91;5033426;28;21333;-56
2023/03/02 05:13:01;;;;;;;2.90;2.70;;;6.70;99.90;;;6.54;72.48;95210.34;5040595;28;20545;-56
2023/03/02 05:15:32;;;;;;;3.10;2.90;;;6.70;99.90;;;6.55;72.94;95201.53;5038262;28;20465;-59
2023/03/02 05:17:59;;;;;;;2.50;2.30;;;6.70;99.90;;;6.52;72.45;95201.75;5040833;28;20482;-58
2023/03/02 05:20:29;;;;;;;2.20;2.10;;;6.70;99.90;;;6.52;72.67;95206.97;5041020;28;21036;-57
2023/03/02 05:22:56;;;;;;;2.40;2.20;;;6.70;99.90;;;6.51;73.09;95216.59;5043525;28;20479;-57
2023/03/02 05:25:24;;;;;;;2.40;1.60;;;6.70;99.90;;;6.51;72.59;95207.94;5033884;28;20459;-57
2023/03/02 05:27:51;;;;;;;1.93;1.83;;;6.70;99.90;;;6.49;72.34;95212.41;5039482;28;20567;-55
2023/03/02 05:30:19;;;;;;;2.60;2.30;;;6.70;99.90;;;6.48;72.71;95215.97;5038037;28;20508;-57
2023/03/02 05:32:47;;;;;;;1.90;1.80;;;6.70;99.90;;;6.52;73.16;95217.41;5031155;28;20477;-57
2023/03/02 05:35:15;;;;;;;3.27;3.00;;;6.70;99.90;;;6.54;73.18;95221.63;5033610;28;20883;-58
2023/03/02 05:37:43;;;;;;;2.20;2.10;;;6.70;99.90;;;6.57;72.23;95220.56;5037977;28;20486;-57
2023/03/02 05:40:12;;;;;;;2.20;2.10;;;6.80;99.90;;;6.59;72.69;95218.69;5034790;28;20519;-61
2023/03/02 05:42:39;;;;;;;1.97;1.87;;;6.80;99.90;;;6.62;73.00;95215.84;5032079;28;20480;-56
2023/03/02 05:45:08;;;;;;;6.70;2.70;;;6.80;99.90;;;6.63;72.31;95220.97;5034894;28;20467;-56
2023/03/02 05:47:36;;;;;;;2.53;2.43;;;6.80;99.90;;;6.64;72.94;95216.56;5032561;28;20983;-55
2023/03/02 05:50:05;;;;;;;2.50;2.37;;;6.80;99.90;;;6.67;72.29;95215.53;5032639;28;20455;-56
2023/03/02 05:52:33;;;;;;;3.30;2.90;;;6.90;99.90;;;6.69;72.59;95214.47;5036768;28;20480;-56
2023/03/02 05:55:01;;;;;;;2.73;2.53;;;6.90;99.90;;;6.72;72.60;95224.69;5030388;28;20514;-58
2023/03/02 05:57:28;;;;;;;4.10;2.90;;;6.90;99.90;;;6.73;72.29;95226.38;5033018;28;20488;-55
2023/03/02 05:59:55;;;;;;;3.83;3.10;;;6.90;99.90;;;6.74;72.49;95221.97;5032078;28;20507;-56
2023/03/02 06:02:23;;;;;;;3.73;3.10;;;6.90;99.90;;;6.75;72.32;95232.31;5036226;28;21137;-56
2023/03/02 06:04:50;;;;;;;3.67;3.43;;;7.00;99.90;;;6.78;72.65;95233.91;5028577;28;20468;-56
2023/03/02 06:07:18;;;;;;;3.87;3.57;;;7.00;99.90;;;6.80;72.00;95230.25;5031745;28;20493;-56
2023/03/02 06:09:46;;;;;;;3.70;3.40;;;7.00;99.90;;;6.81;72.34;95233.69;5032358;28;21010;-61
2023/03/02 06:12:13;;;;;;;3.20;3.00;;;7.00;99.90;;;6.81;72.33;95229.28;5039830;28;20884;-56
2023/03/02 06:14:40;;;;;;;3.83;3.30;;;7.00;99.90;;;6.84;72.19;95235.25;5033181;28;20441;-54
2023/03/02 06:17:08;;;;;;;5.73;4.00;;;7.00;99.90;;;6.83;71.86;95247.47;5041161;28;20853;-56
2023/03/02 06:19:35;;;;;;;3.07;2.87;;;7.00;99.90;;;6.81;72.26;95250.19;5038256;28;20488;-56
2023/03/02 06:22:02;;;;;;;3.40;3.20;;;7.00;99.90;;;6.81;71.85;95250.19;5035248;28;20480;-57
2023/03/02 06:24:31;;;;;;;3.70;3.37;;;7.00;99.90;;;6.80;71.91;95238.09;5041062;28;20518;-54
2023/03/02 06:26:58;;;;;;;4.67;3.60;;;7.00;99.90;;;6.79;71.90;95241.63;5038242;28;20494;-57
2023/03/02 06:29:25;;;;;;;3.80;3.30;;;7.00;99.90;;;6.81;71.96;95247.59;5042330;28;20454;-56
2023/03/02 06:31:53;;;;;;;3.80;2.97;;;7.00;99.90;;;6.81;72.14;95239.75;5042950;28;20483;-57
2023/03/02 06:34:20;;;;;;;8.27;3.23;;;7.00;99.90;;;6.84;72.29;95243.09;5036357;28;20868;-55
2023/03/02 06:36:47;;;;;;;3.70;3.40;;;7.00;99.90;;;6.86;71.90;95241.22;5034563;28;21034;-56
2023/03/02 06:39:15;;;;;;;7.07;3.70;;;7.00;99.90;;;6.84;72.31;95243.94;5033007;28;20500;-56
2023/03/02 06:41:44;;;;;;;3.67;3.33;;;7.00;99.90;;;6.85;71.95;95250.84;5041092;28;21054;-56
2023/03/02 06:44:11;;;;;;;4.73;4.30;;;7.00;99.90;;;6.86;72.62;95247.25;5038245;28;20457;-58
2023/03/02 06:46:39;;;;;;;8.93;4.50;;;7.10;99.90;;;6.86;72.77;95235.97;5034919;28;20480;-56
2023/03/02 06:49:06;;;;;;;5.47;4.30;;;7.10;99.90;;;6.89;72.03;95230.53;5041366;28;20530;-57
2023/03/02 06:51:34;;;;;;;5.37;3.33;;;7.10;99.90;;;6.92;72.50;95235.53;5039122;28;20495;-56
2023/03/02 06:54:01;;;;;;;4.03;3.70;;;7.10;99.90;;;6.93;72.27;95235.44;5032766;28;20456;-57
2023/03/02 06:56:28;;;;;;;3.97;3.20;;;7.10;99.90;;;6.95;71.81;95235.31;5035238;28;20500;-57
2023/03/02 06:58:57;;;;;;;4.80;3.50;;;7.20;99.90;;;6.98;72.23;95241.16;5039492;28;20795;-57
2023/03/02 07:01:24;;;;;;;4.13;3.73;;;7.20;99.90;;;6.98;72.35;95241.16;5038202;28;20480;-56
2023/03/02 07:03:51;;;;;;;7.20;4.77;;;7.20;99.90;;;7.02;72.08;95243.56;5041519;28;20460;-55
2023/03/02 07:06:19;;;;;;;5.47;3.70;;;7.20;99.90;;;7.05;71.96;95240.72;5037411;28;20486;-55
2023/03/02 07:08:46;;;;;;;5.50;3.80;;;7.20;99.90;;;7.04;71.90;95245.13;5031420;28;20884;-56
2023/03/02 07:11:13;;;;;;;8.50;5.17;;;7.20;99.90;;;7.02;72.10;95247.03;5038471;28;20473;-55
2023/03/02 07:13:41;;;;;;;9.10;4.93;;;7.20;99.90;;;7.05;72.96;95232.88;5036621;28;20513;-57
2023/03/02 07:16:11;;;;;;;6.13;4.67;;;7.20;99.90;;;7.07;72.63;95237.06;5036237;28;21020;-57
2023/03/02 07:18:38;;;;;;;5.20;4.10;;;7.20;99.90;;;7.08;72.16;95241.38;5039335;28;20452;-57
2023/03/02 07:21:06;;;;;;;7.00;5.10;;;7.30;99.90;;;7.10;72.06;95243.88;5039119;28;20495;-55
2023/03/02 07:23:33;;;;;;;5.60;5.10;;;7.30;99.90;;;7.10;72.39;95256.94;5038031;28;20499;-55
2023/03/02 07:26:00;;;;;;;6.93;6.07;;;7.30;99.90;;;7.08;71.79;95241.38;5038149;28;21108;-55
2023/03/02 07:28:28;;;;;;;6.90;4.73;;;7.30;99.90;;;7.09;72.71;95242.19;5033878;28;20810;-56
2023/03/02 07:30:55;;;;;;;5.47;4.73;;;7.30;99.90;;;7.11;72.09;95241.16;5037347;28;20460;-55
2023/03/02 07:33:24;;;;;;;8.53;5.40;;;7.30;99.90;;;7.14;72.38;95238.31;5039819;28;20444;-55
2023/03/02 07:35:51;;;;;;;6.40;5.13;;;7.30;99.90;;;7.16;72.01;95240.81;5037166;28;20516;-56
2023/03/02 07:38:18;;;;;;;10.03;6.30;;;7.30;99.90;;;7.18;72.38;95242.38;5033774;28;20530;-57
2023/03/02 07:40:46;;;;;;;6.93;4.43;;;7.40;99.90;;;7.22;72.33;95244.75;5036039;28;20492;-58
2023/03/02 07:43:13;;;;;;;9.37;4.40;;;7.40;99.90;;;7.23;72.55;95243.81;5036349;28;20451;-58
2023/03/02 07:45:40;;;;;;;5.43;4.90;;;7.40;99.90;;;7.24;72.40;95250.75;5036139;28;20452;-58
2023/03/02 07:48:07;;;;;;;5.37;4.60;;;7.40;99.90;;;7.24;72.10;95245.50;5036617;28;20984;-55
2023/03/02 07:50:36;;;;;;;7.43;4.90;;;7.40;99.90;;;7.24;71.81;95238.47;5037899;28;20461;-56
2023/03/02 07:53:03;;;;;;;9.20;5.63;;;7.40;99.90;;;7.26;72.37;95238.38;5037634;28;20838;-55
2023/03/02 07:55:31;;;;;;;5.33;4.83;;;7.40;99.90;;;7.28;71.76;95246.94;5038528;28;20457;-56
2023/03/02 07:57:58;;;;;;;7.73;4.90;;;7.50;99.90;;;7.29;72.05;95238.97;5035788;28;20484;-56
2023/03/02 08:00:26;;;;;;;5.70;5.20;;;7.50;99.90;;;7.31;71.92;95241.47;5034034;28;20496;-56
2023/03/02 08:02:53;;;;;;;5.03;4.20;;;7.50;99.90;;;7.31;72.23;95239.72;5033657;28;20637;-56
2023/03/02 08:05:20;;;;;;;5.20;3.97;;;7.50;99.90;;;7.35;72.44;95237.72;5031452;28;20448;-56
2023/03/02 08:07:49;;;;;;;5.63;3.70;;;7.50;99.90;;;7.38;71.87;95242.72;5031932;28;20477;-56
2023/03/02 08:10:16;;;;;;;4.90;4.40;;;7.60;99.90;;;7.40;72.27;95240.81;5037960;28;21070;-56
2023/03/02 08:12:44;;;;;;;6.37;5.20;;;7.60;99.90;;;7.43;71.89;95235.38;5034514;28;20472;-56
2023/03/02 08:15:12;;;;;;;7.00;4.67;;;7.60;99.90;;;7.46;72.03;95229.91;5040798;28;20505;-55
2023/03/02 08:17:39;;;;;;;10.60;4.93;;;7.60;99.90;;;7.47;72.11;95236.00;5036158;28;21012;-56
2023/03/02 08:20:08;;;;;;;6.50;5.40;;;7.60;99.90;;;7.50;72.06;95230.53;5032522;28;20542;-58
2023/03/02 08:22:35;;;;;;;5.30;4.80;;;7.70;99.90;;;7.54;72.30;95224.97;5035783;28;20473;-56
2023/03/02 08:25:06;;;;;;;4.97;4.47;;;7.70;99.90;;;7.58;71.72;95219.50;5034535;28;20458;-57
2023/03/02 08:27:33;;;;;;;7.77;4.20;;;7.80;99.90;;;7.63;71.40;95227.84;5040385;28;20483;-55
2023/03/02 08:30:00;;;;;;;4.90;4.10;;;7.80;99.90;;;7.65;71.28;95223.31;5030344;28;20448;-57
2023/03/02 08:32:28;;;;;;;6.60;5.00;;;7.80;99.90;;;7.69;71.72;95230.84;5035139;28;20487;-57
2023/03/02 08:34:55;;;;;;;11.63;5.20;;;7.90;99.90;;;7.71;71.38;95225.50;5036185;28;20453;-57
2023/03/02 08:37:22;;;;;;;7.20;4.33;;;7.90;99.90;;;7.73;71.77;95221.00;5030794;28;20479;-56
2023/03/02 08:39:50;;;;;;;5.30;4.20;;;7.90;99.90;;;7.74;71.43;95232.28;5032834;28;20494;-57
2023/03/02 08:42:19;;;;;;;6.10;4.30;;;7.90;99.90;;;7.74;71.04;95220.03;5034587;28;20469;-55
2023/03/02 08:44:46;;;;;;;5.03;3.93;;;7.90;99.90;;;7.76;71.42;95222.53;5035743;28;20903;-56
2023/03/02 08:47:13;;;;;;;5.10;4.43;;;7.90;99.90;;;7.81;71.34;95223.88;5031836;28;20480;-56
2023/03/02 08:49:41;;;;;;;4.90;4.40;;;8.00;99.90;;;7.87;71.42;95219.97;5036326;28;20456;-57
2023/03/02 08:52:08;;;;;;;6.80;5.00;;;8.00;99.90;;;7.94;71.39;95222.94;5040486;28;20521;-56
2023/03/02 08:54:36;;;;;;;5.33;4.80;;;8.10;99.90;;;7.95;71.23;95214.13;5037086;28;20465;-56
2023/03/02 08:57:03;;;;;;;4.63;4.23;;;8.10;99.90;;;7.96;71.13;95215.81;5035018;28;20476;-57
2023/03/02 08:59:32;;;;;;;7.33;5.03;;;8.10;99.90;;;7.99;71.14;95229.50;5034246;28;20460;-56
2023/03/02 09:01:59;;;;;;;6.07;4.80;;;8.20;99.90;;;8.03;70.30;95227.50;5034918;28;20475;-56
2023/03/02 09:04:27;;;;;;;4.60;4.20;;;8.20;99.90;;;8.03;70.52;95224.88;5033474;28;20537;-59
2023/03/02 09:06:54;;;;;;;4.97;4.57;;;8.20;99.90;;;7.97;70.32;95213.06;5035527;28;21516;-56
2023/03/02 09:09:22;;;;;;;7.20;4.43;;;8.20;99.90;;;7.96;70.16;95215.81;5030981;28;20545;-55
2023/03/02 09:11:49;;;;;;;5.03;4.60;;;8.10;99.90;;;7.93;70.11;95227.34;5035837;28;20475;-57
2023/03/02 09:14:16;;;;;;;6.30;5.70;;;8.10;99.90;;;7.90;70.33;95222.34;5037054;28;20452;-55
2023/03/02 09:16:45;;;;;;;7.20;4.93;;;8.10;99.90;;;7.90;70.72;95227.59;5038365;28;20495;-57
2023/03/02 09:19:13;;;;;;;5.20;4.70;;;8.10;99.90;;;7.88;70.55;95219.84;5034737;28;20510;-55
2023/03/02 09:21:40;;;;;;;6.07;5.57;;;8.10;99.90;;;7.88;70.24;95222.47;5035430;28;20499;-57
2023/03/02 09:24:08;;;;;;;4.77;4.37;;;8.10;99.90;;;7.86;70.15;95219.13;5033833;28;20509;-57
2023/03/02 09:26:37;;;;;;;5.67;4.53;;;8.00;99.90;;;7.86;70.09;95229.59;5034079;28;20473;-54
2023/03/02 09:29:05;;;;;;;5.20;4.70;;;8.10;99.90;;;7.86;70.36;95220.91;5035343;28;21003;-56
2023/03/02 09:31:32;;;;;;;5.63;5.13;;;8.00;99.90;;;7.90;70.81;95223.19;5033485;28;20508;-57
2023/03/02 09:34:01;;;;;;;5.00;4.50;;;8.00;99.90;;;8.01;70.54;95221.53;5033223;28;20448;-57
2023/03/02 09:36:31;;;;;;;6.57;4.90;;;8.20;99.90;;;8.14;70.63;95219.66;5033902;28;20472;-56
2023/03/02 09:38:58;;;;;;;5.60;5.10;;;8.30;99.90;;;8.26;70.08;95205.63;5035403;28;20483;-56
2023/03/02 09:42:08;;;;;;;5.60;5.10;;;8.40;99.90;;;8.45;69.96;95200.78;5037095;28;20493;-56
2023/03/02 09:45:08;;;;;;;5.43;4.87;;;8.50;99.90;;;8.61;69.54;95202.09;5032156;28;20453;-58
2023/03/02 09:47:38;;;;;;;8.10;5.63;;;8.70;99.90;;;8.74;68.83;95198.53;5036627;28;21020;-58
2023/03/02 09:50:21;;;;;;;5.17;4.67;;;8.80;99.90;;;8.82;68.53;95204.00;5031830;28;20576;-57
2023/03/02 09:52:52;;;;;;;5.67;5.10;;;8.90;99.90;;;8.88;68.35;95202.69;5041220;28;21052;-57
2023/03/02 09:55:23;;;;;;;6.87;5.80;;;9.00;99.90;;;8.90;67.54;95206.84;5041598;28;20451;-56
2023/03/02 09:57:51;;;;;;;7.57;5.53;;;9.10;99.90;;;8.88;67.53;95210.56;5035690;28;20486;-56
2023/03/02 10:00:24;;;;;;;6.03;5.47;;;9.00;99.90;;;8.82;67.63;95205.78;5038486;28;20496;-57
2023/03/02 10:02:55;;;;;;;6.30;4.87;;;9.00;99.90;;;8.78;67.56;95206.03;5036837;28;20819;-57
2023/03/02 10:05:27;;;;;;;5.83;5.23;;;8.90;99.90;;;8.78;67.68;95216.53;5034355;28;20466;-58
2023/03/02 10:07:55;;;;;;;5.70;5.20;;;9.00;99.90;;;8.75;68.07;95211.53;5038500;28;20487;-58
2023/03/02 10:10:26;;;;;;;5.60;5.10;;;8.90;99.90;;;8.71;67.84;95209.25;5040177;28;20518;-57
2023/03/02 10:13:09;;;;;;;5.10;4.70;;;8.90;99.90;;;8.64;68.20;95205.44;5035313;28;20479;-57
2023/03/02 10:15:39;;;;;;;5.33;4.83;;;8.80;99.90;;;8.61;68.00;95214.38;5039304;28;20976;-56
2023/03/02 10:18:18;;;;;;;5.13;4.73;;;8.80;99.90;;;8.59;67.88;95219.72;5038664;28;20550;-57
2023/03/02 10:20:51;;;;;;;6.53;5.70;;;8.80;99.90;;;8.55;67.81;95209.59;5042761;28;20483;-57
2023/03/02 10:23:39;;;;;;;5.17;4.33;;;8.80;99.90;;;8.51;68.89;95211.63;5031599;28;20464;-57
2023/03/02 10:26:16;;;;;;;5.63;5.13;;;8.70;99.90;;;8.49;68.25;95213.53;5041333;28;20923;-56
2023/03/02 10:28:48;;;;;;;5.83;5.30;;;8.70;99.90;;;8.46;68.06;95205.06;5035904;28;20455;-57
2023/03/02 10:31:22;;;;;;;6.53;5.33;;;8.60;99.90;;;8.41;68.06;95203.63;5033887;28;21043;-56
2023/03/02 10:33:50;;;;;;;12.63;5.47;;;8.60;99.90;;;8.36;68.46;95200.50;5038027;28;20878;-56
2023/03/02 10:36:23;;;;;;;5.77;4.97;;;8.60;99.90;;;8.33;68.03;95202.53;5038463;28;20478;-58
2023/03/02 10:38:50;;;;;;;5.30;4.80;;;8.50;99.90;;;8.29;68.28;95204.56;5035518;28;20518;-58